Ria Da Coruna — EAGB — position and weather

sailwx.info

Track history (hours):
 
Tides and Currents Weather Stations Pressure Air Temp Water Temp Dewpoint Dewpoint Depression Visibility Wind Speed Wind Dir Waves Ship Positions

Ria Da Coruna

Last reported at 2017-Dec-21 10:57 UTC. Time now 2018-Feb-19 12:16 UTC.
Position N 43°44' W 006°01'.
Warning: this ship's position is months out of date.

Length 28 m.

Type: Fishing. MMSI: 224068650.

Date/timePositionNaut miles runAvg speedWind from/ knotsBaromVisibWave heightAir tempDewpointWater temp
2017-Dec-21 10:57N 43°44' W 006°01'510.9
2017-Dec-21 10:29N 43°44' W 005°54'1610.9
2017-Dec-21 09:04N 43°43' W 005°33'110.6
2017-Dec-21 09:00N 43°43' W 005°32'810.5
2017-Dec-21 08:17N 43°42' W 005°21'510.5
2017-Dec-21 07:48N 43°42' W 005°14'310.5
2017-Dec-21 07:28N 43°42' W 005°10'510.4
2017-Dec-21 06:57N 43°41' W 005°02'610.2
2017-Dec-21 06:24N 43°41' W 004°54'410.4
2017-Dec-21 06:00N 43°40' W 004°49'3510.4
2017-Dec-21 02:37N 43°36' W 004°01'410.5
2017-Dec-21 02:15N 43°36' W 003°55'310.6
2017-Dec-21 02:00N 43°36' W 003°51'510.5
2017-Dec-21 01:30N 43°35' W 003°44'510.2
2017-Dec-21 01:00N 43°35' W 003°37'510.6
2017-Dec-21 00:30N 43°33' W 003°30'510.5
2017-Dec-21 00:00N 43°33' W 003°23'510.3
2017-Dec-20 23:30N 43°32' W 003°16'510.2
2017-Dec-20 23:00N 43°32' W 003°09'510.3
2017-Dec-20 22:30N 43°31' W 003°02'510.2
2017-Dec-20 22:00N 43°30' W 002°55'510.4
2017-Dec-20 21:30N 43°28' W 002°49'510.5
2017-Dec-20 21:00N 43°27' W 002°41'510.7
2017-Dec-20 20:30N 43°25' W 002°34'510.5
2017-Dec-20 20:00N 43°24' W 002°28'510.3
2017-Dec-20 19:30N 43°22' W 002°21'510.6
2017-Dec-20 19:00N 43°20' W 002°14'2 4.4
2017-Dec-20 18:30N 43°18' W 002°12'0 0.0
2017-Dec-20 17:35N 43°18' W 002°12'0 0.0
2017-Dec-20 17:30N 43°18' W 002°12'0 0.0
2017-Dec-20 17:00N 43°18' W 002°12'1 1.5
2017-Dec-20 16:27N 43°18' W 002°11'2 1.5
2017-Dec-20 14:54N 43°17' W 002°08'3 7.6
2017-Dec-20 14:30N 43°18' W 002°12'0 0.0
2017-Dec-20 14:00N 43°18' W 002°12'0 0.0
2017-Dec-20 13:30N 43°18' W 002°12'0 0.0
2017-Dec-20 13:00N 43°18' W 002°12'0 0.0
2017-Dec-20 12:12N 43°18' W 002°12'0 0.0
2017-Dec-20 11:57N 43°18' W 002°12'0 0.0
2017-Dec-20 11:30N 43°18' W 002°12'3 5.0
2017-Dec-20 10:57N 43°20' W 002°09'2 4.7
2017-Dec-20 10:31N 43°22' W 002°07'0 0.3
2017-Dec-20 10:01N 43°22' W 002°07'0 0.0
2017-Dec-20 09:30N 43°22' W 002°07'0 0.4
2017-Dec-20 09:00N 43°22' W 002°08'3 5.8
2017-Dec-20 08:30N 43°22' W 002°04'5 9.6
2017-Dec-20 08:00N 43°24' W 001°58'5 9.8
2017-Dec-20 07:30N 43°27' W 001°52'5 9.8
2017-Dec-20 07:00N 43°30' W 001°47'5 9.9
2017-Dec-20 06:30N 43°34' W 001°43'5 9.7
2017-Dec-20 06:00N 43°39' W 001°40'5 9.8
2017-Dec-20 05:30N 43°43' W 001°40'5 9.9
2017-Dec-20 05:00N 43°48' W 001°40'5 9.7
2017-Dec-20 04:30N 43°53' W 001°39'5 9.5
2017-Dec-20 04:00N 43°58' W 001°38'5 9.4
2017-Dec-20 03:30N 44°03' W 001°38'4 9.0
2017-Dec-20 03:01N 44°07' W 001°40'3 5.5
2017-Dec-20 02:30N 44°10' W 001°40'510.6
2017-Dec-20 02:00N 44°14' W 001°43'4 8.6
2017-Dec-20 01:30N 44°18' W 001°40'5 9.8
2017-Dec-20 00:57N 44°23' W 001°36'3 6.9
2017-Dec-20 00:30N 44°26' W 001°35'1 1.6
2017-Dec-20 00:00N 44°25' W 001°35'3 5.4
2017-Dec-19 23:27N 44°26' W 001°31'4 8.2
2017-Dec-19 22:55N 44°23' W 001°27'3 8.3
2017-Dec-19 22:30N 44°19' W 001°26'6 9.8
2017-Dec-19 21:56N 44°14' W 001°27'4 9.6
2017-Dec-19 21:30N 44°10' W 001°27'5 9.6
2017-Dec-19 21:00N 44°05' W 001°30'5 9.7
2017-Dec-19 20:30N 44°01' W 001°32'4 8.9
2017-Dec-19 20:00N 43°58' W 001°37'5 9.4
2017-Dec-19 19:30N 43°58' W 001°43'3 6.8
2017-Dec-19 19:00N 43°55' W 001°46'5 9.4
2017-Dec-19 18:30N 43°50' W 001°46'5 9.4
2017-Dec-19 18:00N 43°47' W 001°50'3 6.0
2017-Dec-19 17:30N 43°47' W 001°54'2 4.2
2017-Dec-19 17:01N 43°46' W 001°51'2 4.0
2017-Dec-19 16:30N 43°44' W 001°52'510.0
2017-Dec-19 16:00N 43°40' W 001°55'510.5
2017-Dec-19 15:30N 43°35' W 001°59'511.0
2017-Dec-19 15:00N 43°31' W 002°03'510.5
2017-Dec-19 14:30N 43°26' W 002°06'4 9.0
2017-Dec-19 14:00N 43°22' W 002°09'4 8.4
2017-Dec-19 13:30N 43°18' W 002°12'0 0.0
2017-Dec-19 13:00N 43°18' W 002°12'  
2017-Dec-14 11:55N 43°18' W 002°12'0 0.0
2017-Dec-14 11:28N 43°18' W 002°12'0 0.0
2017-Dec-14 11:00N 43°18' W 002°12'0 0.0
2017-Dec-14 10:26N 43°18' W 002°12'0 0.0
2017-Dec-14 10:00N 43°18' W 002°12'0 0.0
2017-Dec-14 09:27N 43°18' W 002°12'0 0.0
2017-Dec-14 09:01N 43°18' W 002°12'0 0.0
2017-Dec-14 08:30N 43°18' W 002°12'0 0.2
2017-Dec-14 08:00N 43°18' W 002°12'5 9.8
2017-Dec-14 07:30N 43°20' W 002°18'5 1.9
2017-Dec-14 04:55N 43°20' W 002°25'4 9.5
2017-Dec-14 04:30N 43°23' W 002°29'5 9.1
2017-Dec-14 04:00N 43°25' W 002°34'5 9.6
2017-Dec-14 03:30N 43°26' W 002°41'2 4.1
2017-Dec-14 03:00N 43°25' W 002°43'0 0.0
2017-Dec-14 02:31N 43°25' W 002°43'0 0.0
2017-Dec-14 02:00N 43°25' W 002°43'0 0.0
2017-Dec-14 01:30N 43°25' W 002°43'0 0.0
2017-Dec-14 01:00N 43°25' W 002°43'0 0.0
2017-Dec-14 00:30N 43°25' W 002°43'0 0.0
2017-Dec-14 00:00N 43°25' W 002°43'0 0.0
2017-Dec-13 23:30N 43°25' W 002°43'0 0.0
2017-Dec-13 23:00N 43°25' W 002°43'0 0.0
2017-Dec-13 22:31N 43°25' W 002°43'0 0.0
2017-Dec-13 22:00N 43°25' W 002°43'1 3.0
2017-Dec-13 21:30N 43°26' W 002°42'2 3.2
2017-Dec-13 21:00N 43°26' W 002°44'1 2.3
2017-Dec-13 20:30N 43°27' W 002°43'0 0.9
2017-Dec-13 20:01N 43°27' W 002°43'0 0.8
2017-Dec-13 19:30N 43°27' W 002°44'0 0.5
2017-Dec-13 19:00N 43°27' W 002°44'1 1.1
2017-Dec-13 18:31N 43°27' W 002°44'2 4.2
2017-Dec-13 18:00N 43°26' W 002°41'1 3.0
2017-Dec-13 17:30N 43°27' W 002°43'1 2.4
2017-Dec-13 17:01N 43°26' W 002°43'1 2.2
2017-Dec-13 16:30N 43°25' W 002°43'0 0.0
2017-Dec-13 16:00N 43°25' W 002°43'0 0.0
2017-Dec-13 15:30N 43°25' W 002°43'0 0.0
2017-Dec-13 15:00N 43°25' W 002°43'1 2.9
2017-Dec-13 14:30N 43°27' W 002°43'3 6.5
2017-Dec-13 14:00N 43°28' W 002°47'4 7.6
2017-Dec-13 13:30N 43°27' W 002°42'4 7.1
2017-Dec-13 13:00N 43°26' W 002°38'4 8.2
2017-Dec-13 12:30N 43°25' W 002°32'4 8.9
2017-Dec-13 12:00N 43°23' W 002°27'4 8.7
2017-Dec-13 11:30N 43°22' W 002°21'4 8.6
2017-Dec-13 11:00N 43°20' W 002°16'3 1.1
2017-Dec-13 08:15N 43°18' W 002°12'2 8.1
2017-Dec-13 08:00N 43°19' W 002°09'5 9.3
2017-Dec-13 07:31N 43°22' W 002°04'5 9.3
2017-Dec-13 07:00N 43°24' W 001°59'5 9.1
2017-Dec-13 06:30N 43°27' W 001°53'3 6.8
2017-Dec-13 06:00N 43°27' W 001°49'510.4
2017-Dec-13 05:30N 43°24' W 001°55'510.8
2017-Dec-13 05:00N 43°21' W 002°01'1 1.9
2017-Dec-13 04:30N 43°20' W 002°02'3 6.0
2017-Dec-13 04:00N 43°20' W 002°06'5 9.9
2017-Dec-13 03:30N 43°22' W 002°12'3 6.9
2017-Dec-13 03:00N 43°20' W 002°09'3 5.2
2017-Dec-13 02:30N 43°18' W 002°12'0 0.0
2017-Dec-13 02:00N 43°18' W 002°12'0 0.0
2017-Dec-13 01:30N 43°18' W 002°12'0 0.0
2017-Dec-13 00:55N 43°18' W 002°12'0 0.0
2017-Dec-13 00:30N 43°18' W 002°12'0 0.0
2017-Dec-12 23:59N 43°18' W 002°12'0 0.0
2017-Dec-12 23:24N 43°18' W 002°12'2 5.8
2017-Dec-12 23:00N 43°20' W 002°14'1 1.8
2017-Dec-12 22:31N 43°20' W 002°16'0 0.6
2017-Dec-12 22:00N 43°19' W 002°16'0 0.3
2017-Dec-12 21:30N 43°19' W 002°16'1 2.2
2017-Dec-12 21:00N 43°20' W 002°15'0 0.6
2017-Dec-12 20:30N 43°19' W 002°15'0 0.6
2017-Dec-12 20:00N 43°19' W 002°15'0 0.1
2017-Dec-12 19:30N 43°19' W 002°15'2 4.9
2017-Dec-12 19:01N 43°19' W 002°12'0 0.6
2017-Dec-12 18:30N 43°19' W 002°12'0 0.4
2017-Dec-12 18:00N 43°19' W 002°12'1 2.3
2017-Dec-12 17:30N 43°18' W 002°12'0 0.0
2017-Dec-12 17:00N 43°18' W 002°12'0 0.0
2017-Dec-12 16:30N 43°18' W 002°12'  
Track history (hours):
 
Tides and Currents Weather Stations Pressure Air Temp Water Temp Dewpoint Dewpoint Depression Visibility Wind Speed Wind Dir Waves Ship Positions

Ria Da Coruna

Last reported at 2017-Dec-21 10:57 UTC. Time now 2018-Feb-19 12:16 UTC.
Position N 43°44' W 006°01'.
Warning: this ship's position is months out of date.

Length 28 m.

Type: Fishing. MMSI: 224068650.

Date/timePositionNaut miles runAvg speedWind from/ knotsBaromVisibWave heightAir tempDewpointWater temp
2017-Dec-21 10:57N 43°44' W 006°01'510.9
2017-Dec-21 10:29N 43°44' W 005°54'1610.9
2017-Dec-21 09:04N 43°43' W 005°33'110.6
2017-Dec-21 09:00N 43°43' W 005°32'810.5
2017-Dec-21 08:17N 43°42' W 005°21'510.5
2017-Dec-21 07:48N 43°42' W 005°14'310.5
2017-Dec-21 07:28N 43°42' W 005°10'510.4
2017-Dec-21 06:57N 43°41' W 005°02'610.2
2017-Dec-21 06:24N 43°41' W 004°54'410.4
2017-Dec-21 06:00N 43°40' W 004°49'3510.4
2017-Dec-21 02:37N 43°36' W 004°01'410.5
2017-Dec-21 02:15N 43°36' W 003°55'310.6
2017-Dec-21 02:00N 43°36' W 003°51'510.5
2017-Dec-21 01:30N 43°35' W 003°44'510.2
2017-Dec-21 01:00N 43°35' W 003°37'510.6
2017-Dec-21 00:30N 43°33' W 003°30'510.5
2017-Dec-21 00:00N 43°33' W 003°23'510.3
2017-Dec-20 23:30N 43°32' W 003°16'510.2
2017-Dec-20 23:00N 43°32' W 003°09'510.3
2017-Dec-20 22:30N 43°31' W 003°02'510.2
2017-Dec-20 22:00N 43°30' W 002°55'510.4
2017-Dec-20 21:30N 43°28' W 002°49'510.5
2017-Dec-20 21:00N 43°27' W 002°41'510.7
2017-Dec-20 20:30N 43°25' W 002°34'510.5
2017-Dec-20 20:00N 43°24' W 002°28'510.3
2017-Dec-20 19:30N 43°22' W 002°21'510.6
2017-Dec-20 19:00N 43°20' W 002°14'2 4.4
2017-Dec-20 18:30N 43°18' W 002°12'0 0.0
2017-Dec-20 17:35N 43°18' W 002°12'0 0.0
2017-Dec-20 17:30N 43°18' W 002°12'0 0.0
2017-Dec-20 17:00N 43°18' W 002°12'1 1.5
2017-Dec-20 16:27N 43°18' W 002°11'2 1.5
2017-Dec-20 14:54N 43°17' W 002°08'3 7.6
2017-Dec-20 14:30N 43°18' W 002°12'0 0.0
2017-Dec-20 14:00N 43°18' W 002°12'0 0.0
2017-Dec-20 13:30N 43°18' W 002°12'0 0.0
2017-Dec-20 13:00N 43°18' W 002°12'0 0.0
2017-Dec-20 12:12N 43°18' W 002°12'0 0.0
2017-Dec-20 11:57N 43°18' W 002°12'0 0.0
2017-Dec-20 11:30N 43°18' W 002°12'3 5.0
2017-Dec-20 10:57N 43°20' W 002°09'2 4.7
2017-Dec-20 10:31N 43°22' W 002°07'0 0.3
2017-Dec-20 10:01N 43°22' W 002°07'0 0.0
2017-Dec-20 09:30N 43°22' W 002°07'0 0.4
2017-Dec-20 09:00N 43°22' W 002°08'3 5.8
2017-Dec-20 08:30N 43°22' W 002°04'5 9.6
2017-Dec-20 08:00N 43°24' W 001°58'5 9.8
2017-Dec-20 07:30N 43°27' W 001°52'5 9.8
2017-Dec-20 07:00N 43°30' W 001°47'5 9.9
2017-Dec-20 06:30N 43°34' W 001°43'5 9.7
2017-Dec-20 06:00N 43°39' W 001°40'5 9.8
2017-Dec-20 05:30N 43°43' W 001°40'5 9.9
2017-Dec-20 05:00N 43°48' W 001°40'5 9.7
2017-Dec-20 04:30N 43°53' W 001°39'5 9.5
2017-Dec-20 04:00N 43°58' W 001°38'5 9.4
2017-Dec-20 03:30N 44°03' W 001°38'4 9.0
2017-Dec-20 03:01N 44°07' W 001°40'3 5.5
2017-Dec-20 02:30N 44°10' W 001°40'510.6
2017-Dec-20 02:00N 44°14' W 001°43'4 8.6
2017-Dec-20 01:30N 44°18' W 001°40'5 9.8
2017-Dec-20 00:57N 44°23' W 001°36'3 6.9
2017-Dec-20 00:30N 44°26' W 001°35'1 1.6
2017-Dec-20 00:00N 44°25' W 001°35'3 5.4
2017-Dec-19 23:27N 44°26' W 001°31'4 8.2
2017-Dec-19 22:55N 44°23' W 001°27'3 8.3
2017-Dec-19 22:30N 44°19' W 001°26'6 9.8
2017-Dec-19 21:56N 44°14' W 001°27'4 9.6
2017-Dec-19 21:30N 44°10' W 001°27'5 9.6
2017-Dec-19 21:00N 44°05' W 001°30'5 9.7
2017-Dec-19 20:30N 44°01' W 001°32'4 8.9
2017-Dec-19 20:00N 43°58' W 001°37'5 9.4
2017-Dec-19 19:30N 43°58' W 001°43'3 6.8
2017-Dec-19 19:00N 43°55' W 001°46'5 9.4
2017-Dec-19 18:30N 43°50' W 001°46'5 9.4
2017-Dec-19 18:00N 43°47' W 001°50'3 6.0
2017-Dec-19 17:30N 43°47' W 001°54'2 4.2
2017-Dec-19 17:01N 43°46' W 001°51'2 4.0
2017-Dec-19 16:30N 43°44' W 001°52'510.0
2017-Dec-19 16:00N 43°40' W 001°55'510.5
2017-Dec-19 15:30N 43°35' W 001°59'511.0
2017-Dec-19 15:00N 43°31' W 002°03'510.5
2017-Dec-19 14:30N 43°26' W 002°06'4 9.0
2017-Dec-19 14:00N 43°22' W 002°09'4 8.4
2017-Dec-19 13:30N 43°18' W 002°12'0 0.0
2017-Dec-19 13:00N 43°18' W 002°12'  
2017-Dec-14 11:55N 43°18' W 002°12'0 0.0
2017-Dec-14 11:28N 43°18' W 002°12'0 0.0
2017-Dec-14 11:00N 43°18' W 002°12'0 0.0
2017-Dec-14 10:26N 43°18' W 002°12'0 0.0
2017-Dec-14 10:00N 43°18' W 002°12'0 0.0
2017-Dec-14 09:27N 43°18' W 002°12'0 0.0
2017-Dec-14 09:01N 43°18' W 002°12'0 0.0
2017-Dec-14 08:30N 43°18' W 002°12'0 0.2
2017-Dec-14 08:00N 43°18' W 002°12'5 9.8
2017-Dec-14 07:30N 43°20' W 002°18'5 1.9
2017-Dec-14 04:55N 43°20' W 002°25'4 9.5
2017-Dec-14 04:30N 43°23' W 002°29'5 9.1
2017-Dec-14 04:00N 43°25' W 002°34'5 9.6
2017-Dec-14 03:30N 43°26' W 002°41'2 4.1
2017-Dec-14 03:00N 43°25' W 002°43'0 0.0
2017-Dec-14 02:31N 43°25' W 002°43'0 0.0
2017-Dec-14 02:00N 43°25' W 002°43'0 0.0
2017-Dec-14 01:30N 43°25' W 002°43'0 0.0
2017-Dec-14 01:00N 43°25' W 002°43'0 0.0
2017-Dec-14 00:30N 43°25' W 002°43'0 0.0
2017-Dec-14 00:00N 43°25' W 002°43'0 0.0
2017-Dec-13 23:30N 43°25' W 002°43'0 0.0
2017-Dec-13 23:00N 43°25' W 002°43'0 0.0
2017-Dec-13 22:31N 43°25' W 002°43'0 0.0
2017-Dec-13 22:00N 43°25' W 002°43'1 3.0
2017-Dec-13 21:30N 43°26' W 002°42'2 3.2
2017-Dec-13 21:00N 43°26' W 002°44'1 2.3
2017-Dec-13 20:30N 43°27' W 002°43'0 0.9
2017-Dec-13 20:01N 43°27' W 002°43'0 0.8
2017-Dec-13 19:30N 43°27' W 002°44'0 0.5
2017-Dec-13 19:00N 43°27' W 002°44'1 1.1
2017-Dec-13 18:31N 43°27' W 002°44'2 4.2
2017-Dec-13 18:00N 43°26' W 002°41'1 3.0
2017-Dec-13 17:30N 43°27' W 002°43'1 2.4
2017-Dec-13 17:01N 43°26' W 002°43'1 2.2
2017-Dec-13 16:30N 43°25' W 002°43'0 0.0
2017-Dec-13 16:00N 43°25' W 002°43'0 0.0
2017-Dec-13 15:30N 43°25' W 002°43'0 0.0
2017-Dec-13 15:00N 43°25' W 002°43'1 2.9
2017-Dec-13 14:30N 43°27' W 002°43'3 6.5
2017-Dec-13 14:00N 43°28' W 002°47'4 7.6
2017-Dec-13 13:30N 43°27' W 002°42'4 7.1
2017-Dec-13 13:00N 43°26' W 002°38'4 8.2
2017-Dec-13 12:30N 43°25' W 002°32'4 8.9
2017-Dec-13 12:00N 43°23' W 002°27'4 8.7
2017-Dec-13 11:30N 43°22' W 002°21'4 8.6
2017-Dec-13 11:00N 43°20' W 002°16'3 1.1
2017-Dec-13 08:15N 43°18' W 002°12'2 8.1
2017-Dec-13 08:00N 43°19' W 002°09'5 9.3
2017-Dec-13 07:31N 43°22' W 002°04'5 9.3
2017-Dec-13 07:00N 43°24' W 001°59'5 9.1
2017-Dec-13 06:30N 43°27' W 001°53'3 6.8
2017-Dec-13 06:00N 43°27' W 001°49'510.4
2017-Dec-13 05:30N 43°24' W 001°55'510.8
2017-Dec-13 05:00N 43°21' W 002°01'1 1.9
2017-Dec-13 04:30N 43°20' W 002°02'3 6.0
2017-Dec-13 04:00N 43°20' W 002°06'5 9.9
2017-Dec-13 03:30N 43°22' W 002°12'3 6.9
2017-Dec-13 03:00N 43°20' W 002°09'3 5.2
2017-Dec-13 02:30N 43°18' W 002°12'0 0.0
2017-Dec-13 02:00N 43°18' W 002°12'0 0.0
2017-Dec-13 01:30N 43°18' W 002°12'0 0.0
2017-Dec-13 00:55N 43°18' W 002°12'0 0.0
2017-Dec-13 00:30N 43°18' W 002°12'0 0.0
2017-Dec-12 23:59N 43°18' W 002°12'0 0.0
2017-Dec-12 23:24N 43°18' W 002°12'2 5.8
2017-Dec-12 23:00N 43°20' W 002°14'1 1.8
2017-Dec-12 22:31N 43°20' W 002°16'0 0.6
2017-Dec-12 22:00N 43°19' W 002°16'0 0.3
2017-Dec-12 21:30N 43°19' W 002°16'1 2.2
2017-Dec-12 21:00N 43°20' W 002°15'0 0.6
2017-Dec-12 20:30N 43°19' W 002°15'0 0.6
2017-Dec-12 20:00N 43°19' W 002°15'0 0.1
2017-Dec-12 19:30N 43°19' W 002°15'2 4.9
2017-Dec-12 19:01N 43°19' W 002°12'0 0.6
2017-Dec-12 18:30N 43°19' W 002°12'0 0.4
2017-Dec-12 18:00N 43°19' W 002°12'1 2.3
2017-Dec-12 17:30N 43°18' W 002°12'0 0.0
2017-Dec-12 17:00N 43°18' W 002°12'0 0.0
2017-Dec-12 16:30N 43°18' W 002°12'  

Dump ship's entire track history